createdAt,value
2022-08-22T00:01:59.528Z,17.95
2022-08-22T00:03:03.567Z,19.51
2022-08-22T00:03:06.993Z,18.30
2022-08-22T00:04:03.854Z,17.96
2022-08-22T00:06:07.097Z,18.11
2022-08-22T00:08:08.804Z,18.09
2022-08-22T00:10:12.432Z,18.20
2022-08-22T00:12:27.471Z,18.15
2022-08-22T00:14:36.602Z,18.17
2022-08-22T00:16:38.884Z,18.22
2022-08-22T00:18:40.917Z,18.27
2022-08-22T00:20:42.620Z,18.30
2022-08-22T00:22:43.844Z,18.27
2022-08-22T00:24:46.644Z,18.24
2022-08-22T00:26:47.170Z,18.31
2022-08-22T00:28:50.631Z,18.19
2022-08-22T00:30:52.900Z,18.29
2022-08-22T00:32:54.286Z,18.24
2022-08-22T00:34:54.984Z,18.35
2022-08-22T00:36:57.864Z,18.29
2022-08-22T00:39:02.571Z,18.18
2022-08-22T00:41:03.828Z,18.11
2022-08-22T00:43:13.427Z,18.02
2022-08-22T00:45:18.451Z,17.97
2022-08-22T00:47:27.419Z,17.96
2022-08-22T00:49:35.679Z,17.96
2022-08-22T00:51:50.295Z,17.92
2022-08-22T00:53:51.374Z,17.95
2022-08-22T00:55:55.094Z,17.96
2022-08-22T00:58:01.492Z,17.87
2022-08-22T01:00:17.370Z,17.86
2022-08-22T01:02:22.058Z,17.89
2022-08-22T01:04:28.867Z,17.81
2022-08-22T01:06:33.892Z,17.75
2022-08-22T01:08:39.800Z,17.72
2022-08-22T01:10:46.311Z,17.76
2022-08-22T01:12:54.597Z,17.66
2022-08-22T01:14:55.859Z,17.61
2022-08-22T01:17:01.681Z,17.61
2022-08-22T01:19:22.735Z,17.64
2022-08-22T01:21:38.603Z,17.67
2022-08-22T01:23:54.000Z,17.70
2022-08-22T01:26:06.900Z,17.79
2022-08-22T01:28:24.329Z,17.74
2022-08-22T01:30:32.621Z,17.80
2022-08-22T01:32:53.386Z,17.92
2022-08-22T01:35:01.052Z,17.88
2022-08-22T01:37:13.837Z,17.82
2022-08-22T01:39:35.788Z,17.84
2022-08-22T01:41:45.879Z,17.88
2022-08-22T01:43:59.833Z,17.89
2022-08-22T01:46:13.718Z,17.87
2022-08-22T01:48:21.659Z,17.83
2022-08-22T01:50:24.325Z,17.72
2022-08-22T01:52:31.936Z,17.73
2022-08-22T01:54:38.500Z,17.66
2022-08-22T01:56:40.234Z,17.69
2022-08-22T01:58:44.291Z,17.63
2022-08-22T02:00:56.523Z,17.56
2022-08-22T02:03:03.771Z,17.43
2022-08-22T02:05:06.172Z,17.45
2022-08-22T02:07:09.025Z,17.46
2022-08-22T02:09:10.570Z,17.42
2022-08-22T02:11:10.537Z,17.43
2022-08-22T02:13:11.227Z,17.42
2022-08-22T02:15:20.865Z,17.38
2022-08-22T02:17:21.340Z,17.34
2022-08-22T02:19:24.524Z,17.26
2022-08-22T02:21:25.424Z,17.27
2022-08-22T02:23:29.563Z,17.29
2022-08-22T02:25:32.819Z,17.26
2022-08-22T02:27:35.097Z,17.21
2022-08-22T02:29:35.778Z,17.18
2022-08-22T02:31:38.332Z,17.21
2022-08-22T02:33:43.804Z,17.22
2022-08-22T02:35:49.694Z,17.14
2022-08-22T02:37:56.316Z,17.11
2022-08-22T02:40:06.522Z,17.12
2022-08-22T02:42:15.951Z,17.08
2022-08-22T02:44:17.099Z,17.06
2022-08-22T02:46:22.329Z,17.02
2022-08-22T02:48:28.241Z,17.01
2022-08-22T02:50:32.850Z,17.05
2022-08-22T02:52:34.945Z,16.98
2022-08-22T02:54:38.090Z,17.02
2022-08-22T02:56:41.356Z,16.99
2022-08-22T02:58:44.127Z,16.95
2022-08-22T03:00:47.604Z,16.93
2022-08-22T03:03:00.360Z,16.96
2022-08-22T03:05:01.098Z,16.84
2022-08-22T03:07:06.939Z,16.84
2022-08-22T03:09:20.085Z,16.82
2022-08-22T03:11:22.571Z,16.80
2022-08-22T03:13:26.853Z,16.83
2022-08-22T03:15:28.057Z,16.78
2022-08-22T03:17:30.628Z,16.77
2022-08-22T03:19:31.549Z,16.70
2022-08-22T03:21:33.893Z,16.66
2022-08-22T03:23:36.111Z,16.76
2022-08-22T03:25:37.840Z,16.71
2022-08-22T03:27:37.619Z,16.72
2022-08-22T03:29:38.736Z,16.67
2022-08-22T03:31:36.997Z,16.66
2022-08-22T03:33:35.460Z,16.66
2022-08-22T03:35:36.068Z,16.71
2022-08-22T03:37:39.139Z,16.76
2022-08-22T03:39:43.664Z,16.76
2022-08-22T03:42:00.353Z,16.77
2022-08-22T03:44:16.841Z,16.83
2022-08-22T03:46:34.872Z,16.75
2022-08-22T03:48:55.389Z,16.74
2022-08-22T03:51:02.166Z,16.81
2022-08-22T03:53:23.181Z,16.84
2022-08-22T03:55:27.992Z,16.85
2022-08-22T03:57:37.222Z,16.83
2022-08-22T03:59:49.843Z,16.83
2022-08-22T04:02:41.934Z,16.87
2022-08-22T04:04:50.181Z,16.83
2022-08-22T04:07:00.222Z,16.80
2022-08-22T04:09:18.440Z,16.92
2022-08-22T04:11:41.459Z,17.09
2022-08-22T04:13:51.114Z,17.43
2022-08-22T04:16:03.996Z,17.80
2022-08-22T04:18:16.783Z,18.13
2022-08-22T04:20:26.161Z,18.38
2022-08-22T04:22:33.618Z,18.64
2022-08-22T04:24:38.470Z,18.67
2022-08-22T04:26:41.654Z,18.87
2022-08-22T04:28:43.370Z,19.14
2022-08-22T04:30:45.283Z,19.70
2022-08-22T04:32:46.183Z,19.71
2022-08-22T04:34:46.915Z,20.26
2022-08-22T04:36:50.096Z,20.87
2022-08-22T04:38:49.627Z,20.98
2022-08-22T04:40:50.819Z,20.73
2022-08-22T04:42:54.074Z,20.86
2022-08-22T04:44:57.757Z,21.23
2022-08-22T04:46:59.228Z,20.93
2022-08-22T04:49:02.442Z,20.32
2022-08-22T04:51:03.219Z,20.09
2022-08-22T04:53:09.584Z,19.74
2022-08-22T04:55:12.238Z,19.95
2022-08-22T04:57:17.137Z,19.55
2022-08-22T04:59:17.656Z,19.57
2022-08-22T05:01:17.830Z,19.69
2022-08-22T05:03:18.006Z,19.79
2022-08-22T05:05:18.222Z,19.68
2022-08-22T05:07:17.727Z,19.69
2022-08-22T05:09:18.784Z,19.71
2022-08-22T05:11:19.555Z,19.62
2022-08-22T05:13:19.807Z,19.71
2022-08-22T05:15:22.893Z,19.61
2022-08-22T05:17:24.036Z,19.56
2022-08-22T05:19:31.257Z,19.68
2022-08-22T05:21:32.994Z,19.75
2022-08-22T05:23:36.051Z,19.58
2022-08-22T05:25:36.962Z,19.49
2022-08-22T05:27:36.730Z,19.32
2022-08-22T05:29:34.865Z,19.24
2022-08-22T05:31:34.240Z,19.31
2022-08-22T05:33:34.294Z,19.35
2022-08-22T05:35:36.332Z,19.42
2022-08-22T05:37:38.502Z,19.24
2022-08-22T05:39:38.877Z,19.20
2022-08-22T05:41:39.165Z,19.48
2022-08-22T05:43:39.097Z,20.02
2022-08-22T05:45:38.134Z,20.17
2022-08-22T05:47:37.681Z,20.53
2022-08-22T05:49:39.023Z,20.29
2022-08-22T05:51:40.877Z,20.69
2022-08-22T05:53:41.878Z,20.91
2022-08-22T05:55:44.407Z,21.16
2022-08-22T05:57:46.855Z,21.41
2022-08-22T05:59:45.190Z,21.42
2022-08-22T06:01:48.049Z,21.45
2022-08-22T06:03:50.920Z,20.98
2022-08-22T06:05:52.048Z,21.20
2022-08-22T06:07:51.535Z,21.37
2022-08-22T06:10:10.068Z,21.57
2022-08-22T06:12:21.267Z,21.76
2022-08-22T06:14:27.866Z,22.43
2022-08-22T06:16:32.938Z,22.54
2022-08-22T06:18:32.660Z,22.57
2022-08-22T06:20:34.366Z,22.53
2022-08-22T06:22:36.470Z,22.46
2022-08-22T06:24:37.166Z,22.12
2022-08-22T06:26:38.143Z,22.24
2022-08-22T06:28:55.026Z,22.64
2022-08-22T06:30:56.334Z,22.53
2022-08-22T06:33:00.171Z,23.19
2022-08-22T06:35:05.398Z,23.44
2022-08-22T06:37:06.141Z,23.40
2022-08-22T06:39:09.118Z,23.43
2022-08-22T06:41:09.167Z,23.47
2022-08-22T06:43:07.452Z,23.15
2022-08-22T06:45:08.070Z,23.09
2022-08-22T06:47:08.719Z,22.70
2022-08-22T06:49:08.436Z,22.71
2022-08-22T06:51:08.403Z,22.63
2022-08-22T06:53:08.800Z,22.35
2022-08-22T06:55:08.305Z,22.41
2022-08-22T06:57:07.812Z,22.29
2022-08-22T06:59:08.960Z,22.12
2022-08-22T07:01:11.471Z,22.15
2022-08-22T07:03:15.175Z,21.92
2022-08-22T07:05:16.287Z,22.06
2022-08-22T07:07:18.927Z,22.10
2022-08-22T07:09:19.880Z,21.91
2022-08-22T07:11:21.976Z,21.78
2022-08-22T07:14:44.506Z,21.80
2022-08-22T07:16:49.814Z,21.75
2022-08-22T07:18:51.009Z,22.54
2022-08-22T07:20:53.154Z,22.70
2022-08-22T07:22:56.138Z,22.52
2022-08-22T07:24:57.007Z,22.65
2022-08-22T07:27:12.707Z,22.96
2022-08-22T07:29:23.271Z,23.07
2022-08-22T07:31:33.613Z,23.16
2022-08-22T07:33:42.360Z,23.33
2022-08-22T07:35:53.402Z,23.42
2022-08-22T07:38:00.518Z,23.14
2022-08-22T07:40:10.442Z,23.31
2022-08-22T07:42:15.502Z,23.37
2022-08-22T07:44:20.080Z,23.69
2022-08-22T07:46:30.199Z,23.23
2022-08-22T07:48:31.561Z,23.47
2022-08-22T07:50:32.772Z,23.56
2022-08-22T07:52:34.443Z,23.74
2022-08-22T07:54:38.815Z,24.60
2022-08-22T07:56:42.364Z,25.34
2022-08-22T07:58:44.047Z,24.20
2022-08-22T08:00:45.624Z,23.79
2022-08-22T08:02:49.532Z,23.61
2022-08-22T08:04:51.411Z,23.94
2022-08-22T08:06:54.148Z,25.08
2022-08-22T08:08:54.278Z,25.64
2022-08-22T08:10:56.259Z,26.31
2022-08-22T08:13:02.821Z,26.64
2022-08-22T08:15:04.247Z,26.21
2022-08-22T08:17:06.148Z,26.17
2022-08-22T08:19:06.090Z,25.85
2022-08-22T08:21:08.059Z,24.43
2022-08-22T08:23:10.008Z,24.20
2022-08-22T08:25:10.296Z,24.52
2022-08-22T08:27:33.159Z,24.85
2022-08-22T08:29:32.477Z,24.84
2022-08-22T08:31:35.521Z,25.20
2022-08-22T08:33:34.593Z,25.74
2022-08-22T08:35:42.485Z,25.68
2022-08-22T08:38:03.212Z,26.91
2022-08-22T08:40:04.772Z,27.52
2022-08-22T08:42:30.888Z,27.64
2022-08-22T08:44:57.156Z,27.13
2022-08-22T08:47:15.272Z,28.08
2022-08-22T08:49:42.912Z,29.43
2022-08-22T08:52:09.738Z,30.67
2022-08-22T08:54:22.938Z,31.86
2022-08-22T08:56:30.873Z,31.54
2022-08-22T08:58:39.019Z,32.46
2022-08-22T09:00:52.337Z,33.22
2022-08-22T09:03:01.524Z,31.88
2022-08-22T09:05:50.571Z,30.13
2022-08-22T09:08:24.782Z,28.82
2022-08-22T09:10:42.329Z,28.80
2022-08-22T09:13:12.258Z,28.02
2022-08-22T09:15:27.519Z,26.98
2022-08-22T09:18:04.583Z,28.06
2022-08-22T09:20:23.709Z,29.92
2022-08-22T09:22:50.601Z,31.40
2022-08-22T09:25:17.352Z,33.19
2022-08-22T09:27:21.027Z,32.56
2022-08-22T09:29:54.431Z,30.38
2022-08-22T09:32:03.757Z,30.44
2022-08-22T09:34:11.236Z,31.81
2022-08-22T09:36:19.522Z,31.77
2022-08-22T09:38:38.289Z,30.46
2022-08-22T09:40:46.076Z,28.97
2022-08-22T09:42:56.151Z,28.59
2022-08-22T09:45:21.518Z,28.40
2022-08-22T09:47:27.882Z,29.85
2022-08-22T09:49:47.319Z,31.40
2022-08-22T09:51:55.993Z,30.43
2022-08-22T09:54:15.848Z,29.69
2022-08-22T09:56:26.117Z,29.10
2022-08-22T09:58:41.580Z,29.32
2022-08-22T10:00:47.508Z,30.07
2022-08-22T10:03:12.430Z,29.70
2022-08-22T10:05:40.675Z,29.58
2022-08-22T10:08:03.207Z,30.59
2022-08-22T10:10:17.145Z,31.27
2022-08-22T10:12:35.143Z,32.09
2022-08-22T10:14:50.460Z,32.13
2022-08-22T10:17:07.160Z,31.85
2022-08-22T10:19:16.687Z,32.60
2022-08-22T10:21:27.417Z,32.80
2022-08-22T10:23:37.941Z,32.31
2022-08-22T10:25:42.434Z,30.54
2022-08-22T10:27:53.439Z,29.63
2022-08-22T10:30:03.510Z,30.02
2022-08-22T10:32:15.972Z,29.34
2022-08-22T10:34:20.729Z,29.90
2022-08-22T10:36:30.649Z,30.23
2022-08-22T10:38:36.084Z,31.26
2022-08-22T10:40:48.457Z,31.44
2022-08-22T10:42:59.425Z,31.25
2022-08-22T10:45:23.644Z,31.36
2022-08-22T10:47:39.768Z,29.36
2022-08-22T10:49:46.101Z,28.87
2022-08-22T10:51:58.409Z,28.46
2022-08-22T10:54:05.666Z,28.85
2022-08-22T10:56:13.001Z,29.35
2022-08-22T10:58:15.980Z,29.33
2022-08-22T11:00:37.443Z,29.16
2022-08-22T11:02:53.822Z,28.51
2022-08-22T11:05:20.469Z,28.30
2022-08-22T11:07:48.458Z,27.97
2022-08-22T11:09:54.287Z,27.82
2022-08-22T11:12:00.918Z,28.09
2022-08-22T11:14:21.095Z,28.34
2022-08-22T11:16:36.752Z,28.24
2022-08-22T11:19:01.908Z,27.83
2022-08-22T11:21:07.322Z,26.86
2022-08-22T11:23:27.063Z,26.75
2022-08-22T11:25:41.288Z,26.62
2022-08-22T11:27:45.925Z,27.07
2022-08-22T11:29:51.138Z,27.18
2022-08-22T11:32:05.636Z,27.29
2022-08-22T11:34:12.765Z,27.53
2022-08-22T11:36:31.475Z,27.58
2022-08-22T11:38:38.322Z,27.72
2022-08-22T11:40:42.421Z,27.42
2022-08-22T11:42:48.058Z,27.31
2022-08-22T11:44:54.904Z,26.95
2022-08-22T11:46:58.100Z,26.64
2022-08-22T11:49:31.769Z,26.19
2022-08-22T11:52:01.614Z,25.98
2022-08-22T11:54:12.030Z,25.95
2022-08-22T11:56:23.378Z,25.86
2022-08-22T11:58:38.099Z,25.91
2022-08-22T12:00:48.717Z,26.02
2022-08-22T12:03:23.248Z,25.97
2022-08-22T12:05:24.706Z,26.03
2022-08-22T12:07:31.191Z,25.97
2022-08-22T12:09:44.248Z,26.11
2022-08-22T12:11:59.735Z,26.22
2022-08-22T12:14:06.833Z,26.34
2022-08-22T12:16:13.288Z,26.26
2022-08-22T12:18:43.046Z,26.23
2022-08-22T12:21:21.442Z,26.29
2022-08-22T12:23:43.265Z,26.39
2022-08-22T12:26:10.715Z,26.52
2022-08-22T12:28:23.925Z,26.78
2022-08-22T12:30:31.073Z,26.47
2022-08-22T12:33:21.983Z,26.35
2022-08-22T12:35:34.608Z,26.29
2022-08-22T12:37:52.291Z,26.32
2022-08-22T12:40:20.619Z,26.35
2022-08-22T12:42:47.323Z,26.36
2022-08-22T12:45:01.711Z,26.29
2022-08-22T12:47:19.278Z,26.45
2022-08-22T12:49:38.697Z,26.14
2022-08-22T12:51:46.828Z,25.85
2022-08-22T12:54:15.274Z,25.91
2022-08-22T12:56:26.864Z,25.44
2022-08-22T12:58:35.525Z,25.26
2022-08-22T13:00:37.359Z,25.02
2022-08-22T13:02:39.568Z,25.06
2022-08-22T13:04:53.795Z,24.97
2022-08-22T13:07:07.684Z,24.86
2022-08-22T13:09:18.979Z,25.00
2022-08-22T13:11:23.005Z,25.13
2022-08-22T13:13:36.883Z,24.95
2022-08-22T13:15:46.418Z,24.84
2022-08-22T13:17:53.081Z,24.77
2022-08-22T13:20:03.482Z,24.63
2022-08-22T13:22:06.800Z,24.89
2022-08-22T13:24:10.485Z,24.96
2022-08-22T13:26:16.475Z,24.98
2022-08-22T13:28:36.947Z,24.94
2022-08-22T13:30:40.164Z,24.90
2022-08-22T13:32:44.406Z,24.91
2022-08-22T13:34:47.338Z,24.94
2022-08-22T13:36:57.512Z,24.69
2022-08-22T13:39:06.623Z,24.16
2022-08-22T13:41:05.778Z,23.92
2022-08-22T13:43:09.861Z,23.69
2022-08-22T13:45:15.521Z,23.47
2022-08-22T13:47:19.210Z,23.11
2022-08-22T13:49:21.378Z,22.88
2022-08-22T13:51:30.719Z,22.70
2022-08-22T13:53:39.613Z,22.61
2022-08-22T13:55:49.128Z,22.30
2022-08-22T13:57:52.173Z,21.98
2022-08-22T14:00:02.625Z,21.20
2022-08-22T14:02:15.220Z,20.53
2022-08-22T14:04:30.956Z,20.04
2022-08-22T14:06:41.380Z,19.83
2022-08-22T14:08:45.937Z,19.51
2022-08-22T14:10:55.486Z,19.05
2022-08-22T14:13:36.693Z,18.78
2022-08-22T14:15:45.434Z,18.82
2022-08-22T14:17:48.390Z,18.81
2022-08-22T14:19:59.093Z,18.89
2022-08-22T14:22:00.741Z,18.83
2022-08-22T14:24:05.598Z,18.80
2022-08-22T14:26:04.035Z,18.75
2022-08-22T14:28:06.506Z,18.82
2022-08-22T14:30:14.479Z,18.87
2022-08-22T14:32:35.339Z,18.91
2022-08-22T14:34:37.744Z,19.01
2022-08-22T14:36:45.751Z,19.03
2022-08-22T14:38:47.779Z,19.37
2022-08-22T14:40:54.125Z,19.26
2022-08-22T14:42:59.631Z,19.23
2022-08-22T14:45:06.486Z,19.21
2022-08-22T14:47:54.046Z,19.27
2022-08-22T14:49:34.444Z,19.51
2022-08-22T14:51:33.725Z,19.51
2022-08-22T14:53:34.762Z,19.45
2022-08-22T14:55:33.989Z,19.49
2022-08-22T14:57:37.038Z,19.56
2022-08-22T14:59:50.257Z,19.59
2022-08-22T15:01:56.967Z,19.72
2022-08-22T15:04:00.514Z,19.94
2022-08-22T15:06:03.079Z,20.14
2022-08-22T15:08:01.677Z,20.24
2022-08-22T15:10:07.535Z,20.34
2022-08-22T15:12:25.127Z,20.59
2022-08-22T15:14:29.939Z,20.75
2022-08-22T15:16:35.689Z,20.76
2022-08-22T15:18:36.683Z,20.84
2022-08-22T15:20:45.214Z,20.77
2022-08-22T15:22:47.896Z,20.71
2022-08-22T15:24:57.098Z,20.66
2022-08-22T15:26:57.694Z,20.75
2022-08-22T15:29:08.849Z,20.62
2022-08-22T15:31:16.494Z,20.56
2022-08-22T15:33:24.134Z,20.57
2022-08-22T15:35:31.251Z,20.51
2022-08-22T15:37:33.163Z,20.49
2022-08-22T15:39:38.087Z,20.45
2022-08-22T15:41:44.899Z,20.39
2022-08-22T15:43:49.170Z,20.19
2022-08-22T15:45:48.974Z,20.19
2022-08-22T15:47:52.328Z,20.29
2022-08-22T15:49:55.760Z,20.43
2022-08-22T15:52:08.626Z,20.55
2022-08-22T15:54:24.463Z,20.36
2022-08-22T15:56:33.942Z,20.26
2022-08-22T15:58:33.403Z,20.18
2022-08-22T16:00:43.848Z,20.03
2022-08-22T16:02:58.473Z,19.99
2022-08-22T16:05:04.652Z,19.98
2022-08-22T16:07:19.918Z,19.99
2022-08-22T16:09:37.463Z,20.10
2022-08-22T16:11:40.670Z,20.13
2022-08-22T16:13:42.854Z,20.14
2022-08-22T16:16:03.406Z,20.17
2022-08-22T16:18:03.237Z,20.08
2022-08-22T16:20:35.235Z,20.13
2022-08-22T16:23:06.160Z,20.10
2022-08-22T16:25:10.339Z,20.09
2022-08-22T16:27:26.028Z,20.00
2022-08-22T16:29:35.859Z,20.02
2022-08-22T16:31:56.780Z,20.06
2022-08-22T16:33:59.690Z,20.02
2022-08-22T16:36:41.906Z,19.93
2022-08-22T16:38:44.418Z,19.95
2022-08-22T16:40:49.388Z,19.97
2022-08-22T16:42:51.189Z,20.17
2022-08-22T16:44:50.512Z,20.07
2022-08-22T16:46:51.929Z,20.01
2022-08-22T16:49:02.650Z,20.00
2022-08-22T16:51:11.221Z,20.05
2022-08-22T16:53:12.508Z,19.97
2022-08-22T16:55:44.240Z,19.89
2022-08-22T16:58:09.773Z,19.74
2022-08-22T17:00:28.239Z,19.68
2022-08-22T17:02:49.733Z,19.79
2022-08-22T17:05:03.362Z,19.85
2022-08-22T17:07:15.650Z,19.73
2022-08-22T17:09:34.346Z,19.68
2022-08-22T17:11:48.404Z,19.86
2022-08-22T17:14:04.599Z,19.81
2022-08-22T17:16:15.635Z,19.69
2022-08-22T17:18:28.146Z,19.59
2022-08-22T17:20:38.620Z,19.57
2022-08-22T17:22:46.191Z,19.57
2022-08-22T17:24:47.699Z,19.51
2022-08-22T17:26:56.816Z,19.58
2022-08-22T17:29:09.894Z,19.60
2022-08-22T17:31:17.976Z,19.51
2022-08-22T17:33:29.962Z,19.57
2022-08-22T17:35:51.544Z,19.54
2022-08-22T17:38:03.821Z,19.50
2022-08-22T17:40:20.962Z,19.44
2022-08-22T17:42:47.252Z,19.46
2022-08-22T17:44:53.998Z,19.48
2022-08-22T17:46:56.618Z,19.50
2022-08-22T17:49:01.066Z,19.51
2022-08-22T17:51:12.387Z,19.54
2022-08-22T17:53:16.658Z,19.58
2022-08-22T17:55:20.523Z,19.62
2022-08-22T17:57:28.524Z,19.57
2022-08-22T17:59:31.781Z,19.48
2022-08-22T18:01:46.778Z,19.42
2022-08-22T18:03:52.773Z,19.49
2022-08-22T18:05:53.723Z,19.54
2022-08-22T18:08:07.191Z,19.47
2022-08-22T18:10:14.576Z,19.44
2022-08-22T18:12:20.451Z,19.37
2022-08-22T18:14:31.059Z,19.28
2022-08-22T18:16:34.721Z,19.24
2022-08-22T18:18:36.614Z,19.23
2022-08-22T18:20:45.856Z,19.25
2022-08-22T18:22:51.509Z,19.28
2022-08-22T18:24:55.726Z,19.22
2022-08-22T18:27:04.580Z,19.17
2022-08-22T18:29:12.915Z,19.13
2022-08-22T18:31:38.193Z,19.05
2022-08-22T18:33:43.211Z,19.06
2022-08-22T18:35:50.008Z,19.00
2022-08-22T18:37:58.980Z,18.97
2022-08-22T18:40:02.945Z,18.91
2022-08-22T18:42:08.173Z,18.90
2022-08-22T18:44:12.246Z,18.93
2022-08-22T18:46:34.308Z,19.10
2022-08-22T18:48:59.501Z,19.06
2022-08-22T18:51:24.939Z,19.10
2022-08-22T18:53:39.501Z,19.09
2022-08-22T18:55:53.014Z,19.11
2022-08-22T18:58:35.066Z,19.03
2022-08-22T19:00:56.176Z,18.94
2022-08-22T19:03:12.117Z,19.03
2022-08-22T19:05:34.511Z,19.02
2022-08-22T19:07:52.248Z,19.07
2022-08-22T19:10:11.369Z,19.03
2022-08-22T19:12:27.903Z,19.09
2022-08-22T19:14:49.394Z,19.12
2022-08-22T19:17:15.703Z,19.04
2022-08-22T19:19:21.576Z,19.03
2022-08-22T19:21:45.004Z,18.88
2022-08-22T19:23:47.602Z,18.98
2022-08-22T19:26:29.521Z,18.96
2022-08-22T19:28:37.089Z,18.88
2022-08-22T19:30:45.224Z,18.83
2022-08-22T19:33:05.240Z,18.83
2022-08-22T19:35:19.912Z,18.79
2022-08-22T19:37:30.947Z,18.73
2022-08-22T19:39:54.667Z,18.73
2022-08-22T19:41:57.152Z,18.74
2022-08-22T19:43:57.018Z,18.75
2022-08-22T19:45:57.313Z,18.73
2022-08-22T19:48:14.096Z,18.71
2022-08-22T19:50:30.925Z,18.69
2022-08-22T19:52:43.806Z,18.65
2022-08-22T19:54:52.273Z,18.62
2022-08-22T19:57:04.164Z,18.56
2022-08-22T19:59:16.659Z,18.62
2022-08-22T20:01:38.617Z,18.61
2022-08-22T20:03:50.753Z,18.59
2022-08-22T20:05:57.015Z,18.57
2022-08-22T20:08:24.984Z,18.58
2022-08-22T20:10:32.376Z,18.60
2022-08-22T20:12:38.297Z,18.55
2022-08-22T20:14:41.039Z,18.67
2022-08-22T20:17:03.170Z,18.63
2022-08-22T20:19:21.752Z,18.68
2022-08-22T20:21:42.322Z,18.65
2022-08-22T20:23:41.816Z,18.60
2022-08-22T20:25:45.730Z,18.62
2022-08-22T20:27:46.962Z,18.66
2022-08-22T20:29:54.033Z,18.63
2022-08-22T20:31:56.773Z,18.55
2022-08-22T20:34:01.965Z,18.80
2022-08-22T20:36:03.192Z,18.83
2022-08-22T20:38:07.258Z,18.67
2022-08-22T20:40:25.854Z,18.52
2022-08-22T20:42:38.803Z,18.49
2022-08-22T20:44:46.504Z,18.66
2022-08-22T20:46:57.684Z,18.78
2022-08-22T20:48:57.419Z,18.83
2022-08-22T20:51:04.270Z,18.69
2022-08-22T20:53:13.065Z,18.51
2022-08-22T20:55:18.790Z,18.38
2022-08-22T20:57:18.813Z,18.36
2022-08-22T20:59:25.692Z,18.42
2022-08-22T21:01:24.225Z,18.40
2022-08-22T21:03:37.903Z,18.30
2022-08-22T21:05:39.709Z,18.27
2022-08-22T21:07:40.454Z,18.22
2022-08-22T21:09:56.405Z,18.19
2022-08-22T21:12:00.379Z,18.19
2022-08-22T21:13:59.428Z,18.20
2022-08-22T21:15:59.668Z,18.17
2022-08-22T21:17:58.898Z,18.17
2022-08-22T21:19:59.245Z,18.18
2022-08-22T21:22:12.505Z,18.19
2022-08-22T21:24:11.218Z,18.18
2022-08-22T21:26:11.965Z,18.15
2022-08-22T21:28:10.431Z,18.11
2022-08-22T21:30:10.694Z,18.09
2022-08-22T21:32:19.920Z,18.09
2022-08-22T21:34:22.236Z,18.08
2022-08-22T21:36:25.374Z,18.12
2022-08-22T21:38:24.003Z,18.08
2022-08-22T21:40:30.532Z,18.07
2022-08-22T21:42:33.539Z,18.07
2022-08-22T21:44:36.331Z,18.04
2022-08-22T21:46:34.771Z,17.95
2022-08-22T21:48:37.032Z,17.97
2022-08-22T21:50:38.378Z,18.03
2022-08-22T21:52:40.076Z,18.01
2022-08-22T21:54:42.766Z,18.02
2022-08-22T21:56:41.031Z,17.99
2022-08-22T21:58:39.586Z,17.93
2022-08-22T22:00:48.900Z,17.92
2022-08-22T22:02:47.637Z,17.92
2022-08-22T22:04:45.955Z,17.85
2022-08-22T22:06:44.385Z,17.86
2022-08-22T22:08:44.133Z,17.82
2022-08-22T22:10:45.374Z,17.82
2022-08-22T22:12:45.563Z,17.84
2022-08-22T22:14:47.977Z,17.84
2022-08-22T22:16:46.377Z,17.73
2022-08-22T22:18:44.637Z,17.66
2022-08-22T22:20:44.077Z,17.59
2022-08-22T22:22:46.664Z,17.58
2022-08-22T22:24:46.560Z,17.53
2022-08-22T22:26:45.092Z,17.52
2022-08-22T22:28:47.865Z,17.54
2022-08-22T22:30:50.571Z,17.58
2022-08-22T22:32:49.369Z,17.57
2022-08-22T22:34:50.806Z,17.60
2022-08-22T22:36:49.146Z,17.58
2022-08-22T22:38:48.052Z,17.56
2022-08-22T22:40:47.738Z,17.55
2022-08-22T22:42:46.106Z,17.54
2022-08-22T22:44:47.588Z,17.51
2022-08-22T22:46:46.023Z,17.45
2022-08-22T22:48:44.379Z,17.51
2022-08-22T22:50:44.183Z,17.48
2022-08-22T22:52:42.484Z,17.49
2022-08-22T22:54:41.373Z,17.54
2022-08-22T22:56:42.118Z,17.54
2022-08-22T22:58:47.462Z,17.53
2022-08-22T23:00:46.061Z,17.54
2022-08-22T23:02:44.368Z,17.58
2022-08-22T23:04:45.035Z,17.57
2022-08-22T23:06:43.361Z,17.50
2022-08-22T23:08:42.548Z,17.43
2022-08-22T23:10:41.593Z,17.37
2022-08-22T23:12:41.429Z,17.30
2022-08-22T23:14:39.773Z,17.33
2022-08-22T23:16:41.581Z,17.45
2022-08-22T23:18:39.891Z,17.43
2022-08-22T23:20:38.248Z,17.36
2022-08-22T23:22:36.508Z,17.28
2022-08-22T23:24:36.319Z,17.29
2022-08-22T23:26:34.643Z,17.42
2022-08-22T23:28:38.543Z,17.33
2022-08-22T23:30:36.750Z,17.28
2022-08-22T23:32:36.328Z,17.22
2022-08-22T23:34:37.378Z,17.21
2022-08-22T23:36:36.214Z,17.26
2022-08-22T23:38:34.438Z,17.42
2022-08-22T23:40:33.010Z,17.41
2022-08-22T23:42:31.268Z,17.30
2022-08-22T23:44:37.189Z,17.30
2022-08-22T23:46:36.138Z,17.48
2022-08-22T23:48:34.437Z,17.53
2022-08-22T23:50:33.994Z,17.60
2022-08-22T23:52:32.372Z,17.71
2022-08-22T23:54:30.643Z,17.76
2022-08-22T23:56:31.025Z,17.86
2022-08-22T23:58:29.205Z,18.04
